Time;durP1;ratioP1;P1;durP2;ratioP2;P2;SDS_P1;SDS_P2;PMS_P1;PMS_P2;Temp;Humidity;BMP_temperature;BMP_pressure;BME280_temperature;BME280_humidity;BME280_pressure;Samples;Min_cycle;Max_cycle;Signal;HPM_P1;HPM_P2
2022/07/20 00:00:35;;;;;;;7.45;2.28;;;26.50;60.70;;;;;;5054367;28;20032;-75
2022/07/20 00:03:11;;;;;;;4.80;2.70;;;26.50;61.60;;;;;;5054149;28;20029;-75
2022/07/20 00:05:38;;;;;;;5.47;2.70;;;26.40;61.30;;;;;;5054287;28;20503;-75
2022/07/20 00:08:05;;;;;;;4.78;2.47;;;26.30;60.50;;;;;;5054301;28;20035;-75
2022/07/20 00:13:28;;;;;;;5.45;2.85;;;26.30;60.00;;;;;;5009753;28;20062;-75
2022/07/20 00:15:54;;;;;;;6.97;2.40;;;26.20;60.10;;;;;;5053860;28;20039;-75
2022/07/20 00:18:20;;;;;;;7.68;2.40;;;26.20;59.60;;;;;;5054036;28;20381;-75
2022/07/20 00:20:45;;;;;;;7.05;2.03;;;26.20;58.40;;;;;;5054011;28;20036;-75
2022/07/20 00:23:11;;;;;;;9.15;2.92;;;26.10;57.40;;;;;;5053908;28;20025;-75
2022/07/20 00:25:37;;;;;;;5.32;2.30;;;26.10;56.80;;;;;;5053840;28;20408;-75
2022/07/20 00:28:02;;;;;;;5.70;2.30;;;26.10;56.70;;;;;;5053933;28;20477;-74
2022/07/20 00:30:28;;;;;;;8.63;2.60;;;26.00;57.00;;;;;;5053851;28;20060;-75
2022/07/20 00:32:54;;;;;;;8.50;2.83;;;26.10;57.10;;;;;;5053744;28;20135;-75
2022/07/20 00:35:19;;;;;;;5.63;2.67;;;26.00;56.90;;;;;;5068916;28;20033;-75
2022/07/20 00:37:45;;;;;;;5.20;2.00;;;26.00;57.20;;;;;;5053622;28;20032;-75
2022/07/20 00:40:13;;;;;;;7.78;2.72;;;26.00;56.50;;;;;;5053601;28;20389;-75
2022/07/20 00:42:39;;;;;;;5.07;2.40;;;25.90;56.40;;;;;;5053580;28;20048;-75
2022/07/20 00:45:06;;;;;;;8.00;2.80;;;25.90;56.30;;;;;;5035954;28;20469;-75
2022/07/20 00:47:32;;;;;;;11.20;2.60;;;25.80;56.00;;;;;;5053515;28;20036;-75
2022/07/20 00:49:58;;;;;;;8.30;2.35;;;25.80;55.80;;;;;;5053534;28;20029;-75
2022/07/20 00:52:24;;;;;;;12.07;2.75;;;25.80;55.70;;;;;;5053405;28;20035;-75
2022/07/20 00:54:50;;;;;;;6.15;2.53;;;25.80;55.90;;;;;;5053270;28;20049;-75
2022/07/20 00:57:16;;;;;;;8.60;2.38;;;25.70;55.80;;;;;;5053088;28;20473;-75
2022/07/20 00:59:42;;;;;;;5.32;2.28;;;25.70;55.60;;;;;;5053318;28;20071;-75
2022/07/20 01:02:08;;;;;;;5.63;2.55;;;25.60;55.30;;;;;;5035566;28;20048;-75
2022/07/20 01:04:34;;;;;;;7.32;2.53;;;25.60;55.20;;;;;;5053116;28;20437;-75
2022/07/20 01:07:00;;;;;;;6.25;2.50;;;25.60;55.40;;;;;;5053232;28;20078;-75
2022/07/20 01:09:26;;;;;;;5.28;2.25;;;25.60;55.40;;;;;;5053127;28;20024;-75
2022/07/20 01:11:51;;;;;;;5.95;2.70;;;25.60;55.40;;;;;;5053227;28;20108;-75
2022/07/20 01:14:17;;;;;;;4.78;2.30;;;25.50;55.20;;;;;;5052355;28;20511;-75
2022/07/20 01:16:42;;;;;;;8.40;2.25;;;25.40;55.10;;;;;;5068499;28;20048;-75
2022/07/20 01:19:08;;;;;;;4.45;2.47;;;25.40;55.20;;;;;;5052997;28;20017;-75
2022/07/20 01:21:40;;;;;;;5.53;2.13;;;25.40;55.20;;;;;;5052953;28;20082;-75
2022/07/20 01:24:09;;;;;;;7.10;2.67;;;25.40;55.00;;;;;;5052911;28;20049;-75
2022/07/20 01:26:37;;;;;;;5.95;2.38;;;25.30;54.80;;;;;;5052952;28;20021;-75
2022/07/20 01:29:02;;;;;;;8.13;2.28;;;25.30;54.50;;;;;;5053008;28;20021;-75
2022/07/20 01:31:28;;;;;;;4.82;2.20;;;25.20;54.20;;;;;;5052519;28;20044;-75
2022/07/20 01:33:54;;;;;;;5.68;2.47;;;25.30;54.10;;;;;;5052837;28;20036;-75
2022/07/20 01:36:19;;;;;;;8.52;2.75;;;25.20;54.00;;;;;;5052758;28;20025;-75
2022/07/20 01:38:45;;;;;;;4.30;2.50;;;25.20;54.10;;;;;;5052916;28;20025;-75
2022/07/20 01:41:10;;;;;;;4.88;2.15;;;25.20;54.30;;;;;;5052808;28;20021;-75
2022/07/20 01:43:36;;;;;;;4.18;2.53;;;25.20;54.40;;;;;;5052825;28;20064;-75
2022/07/20 01:46:01;;;;;;;6.10;2.50;;;25.10;54.30;;;;;;5052715;28;20037;-75
2022/07/20 01:48:27;;;;;;;6.55;2.67;;;25.10;54.00;;;;;;5052767;28;20544;-75
2022/07/20 01:50:53;;;;;;;6.57;2.63;;;25.10;53.90;;;;;;5052992;28;20116;-74
2022/07/20 01:53:18;;;;;;;4.22;2.47;;;25.10;53.70;;;;;;5052728;28;20037;-75
2022/07/20 01:55:44;;;;;;;5.80;2.35;;;25.00;53.30;;;;;;5052547;28;20128;-75
2022/07/20 01:58:09;;;;;;;7.90;2.35;;;25.00;53.30;;;;;;5068422;28;20021;-75
2022/07/20 02:00:35;;;;;;;6.18;2.42;;;25.00;53.30;;;;;;5068057;28;20037;-75
2022/07/20 02:03:01;;;;;;;7.05;2.53;;;25.00;53.60;;;;;;5052521;28;20028;-75
2022/07/20 02:05:27;;;;;;;9.35;2.67;;;25.00;54.00;;;;;;5068273;28;20496;-75
2022/07/20 02:07:52;;;;;;;6.43;2.38;;;25.00;53.90;;;;;;5052620;28;20112;-75
2022/07/20 02:10:18;;;;;;;5.95;2.40;;;25.00;53.90;;;;;;5052494;28;20108;-75
2022/07/20 02:12:44;;;;;;;4.63;1.90;;;25.00;53.70;;;;;;5052470;28;20104;-75
2022/07/20 02:15:11;;;;;;;6.72;2.35;;;24.90;53.50;;;;;;5052241;28;20548;-75
2022/07/20 02:17:36;;;;;;;5.15;2.50;;;24.90;53.50;;;;;;5052424;28;20389;-75
2022/07/20 02:20:04;;;;;;;9.65;3.08;;;24.90;53.20;;;;;;5052521;28;20017;-75
2022/07/20 02:22:29;;;;;;;8.38;2.65;;;24.90;54.10;;;;;;5052483;28;20104;-75
2022/07/20 02:24:55;;;;;;;8.85;3.00;;;24.80;55.10;;;;;;5052544;28;20109;-75
2022/07/20 02:27:20;;;;;;;8.85;3.00;;;24.80;55.50;;;;;;5056088;28;20504;-75
2022/07/20 02:29:46;;;;;;;6.30;2.85;;;24.70;55.60;;;;;;5055993;28;20044;-75
2022/07/20 02:32:12;;;;;;;5.30;2.80;;;24.60;56.00;;;;;;5055999;28;20025;-75
2022/07/20 02:34:37;;;;;;;6.07;2.90;;;24.60;57.00;;;;;;5056014;28;20029;-75
2022/07/20 02:37:03;;;;;;;6.20;2.90;;;24.50;58.50;;;;;;5055847;28;20112;-75
2022/07/20 02:39:29;;;;;;;6.40;2.63;;;24.40;59.60;;;;;;5055882;28;20074;-75
2022/07/20 02:41:55;;;;;;;4.53;2.63;;;24.30;60.30;;;;;;5056042;28;20029;-75
2022/07/20 02:44:20;;;;;;;6.40;2.40;;;24.30;60.50;;;;;;5055728;28;20049;-75
2022/07/20 02:46:46;;;;;;;4.90;2.67;;;24.30;60.30;;;;;;5055708;28;20033;-75
2022/07/20 02:49:11;;;;;;;9.65;2.45;;;24.20;60.00;;;;;;5055850;28;20059;-75
2022/07/20 02:51:37;;;;;;;5.57;2.28;;;24.20;59.90;;;;;;5055783;28;20064;-75
2022/07/20 02:54:03;;;;;;;5.15;2.55;;;24.20;60.40;;;;;;5055585;28;20045;-75
2022/07/20 02:56:28;;;;;;;5.18;2.30;;;24.10;61.20;;;;;;5055547;28;20484;-75
2022/07/20 02:58:54;;;;;;;8.40;2.60;;;24.00;61.80;;;;;;5055583;28;20025;-75
2022/07/20 03:01:20;;;;;;;5.88;2.90;;;24.00;62.30;;;;;;5055535;28;20504;-75
2022/07/20 03:03:45;;;;;;;8.65;3.13;;;24.00;62.80;;;;;;5055346;28;20370;-75
2022/07/20 03:06:11;;;;;;;8.77;2.50;;;24.00;63.60;;;;;;5063758;28;20036;-75
2022/07/20 03:08:37;;;;;;;5.80;2.90;;;23.90;64.00;;;;;;5057434;28;20068;-75
2022/07/20 03:11:02;;;;;;;6.68;3.40;;;23.90;64.00;;;;;;5073856;28;20032;-75
2022/07/20 03:13:28;;;;;;;8.52;3.20;;;23.80;63.40;;;;;;5075094;28;20527;-75
2022/07/20 03:15:53;;;;;;;8.15;3.30;;;23.80;62.90;;;;;;5040196;28;20041;-75
2022/07/20 03:18:19;;;;;;;6.32;2.70;;;23.80;62.70;;;;;;5075443;28;20024;-75
2022/07/20 03:20:45;;;;;;;8.73;3.72;;;23.70;62.50;;;;;;5074985;28;20040;-75
2022/07/20 03:23:11;;;;;;;5.82;3.10;;;23.70;62.80;;;;;;5057140;28;20424;-75
2022/07/20 03:25:37;;;;;;;5.80;3.15;;;23.60;63.20;;;;;;5057053;28;20050;-75
2022/07/20 03:28:02;;;;;;;5.93;3.08;;;23.60;63.50;;;;;;5075213;28;20035;-75
2022/07/20 03:30:29;;;;;;;6.63;2.88;;;23.50;63.30;;;;;;5074798;28;20099;-75
2022/07/20 03:32:55;;;;;;;6.63;2.83;;;23.40;63.50;;;;;;5074787;28;20028;-74
2022/07/20 03:35:21;;;;;;;6.70;3.03;;;23.40;64.60;;;;;;5074923;28;20042;-76
2022/07/20 03:37:47;;;;;;;5.05;2.80;;;23.40;64.30;;;;;;5074073;28;20496;-74
2022/07/20 03:40:13;;;;;;;6.80;3.22;;;23.30;64.30;;;;;;5074695;28;20082;-74
2022/07/20 03:42:39;;;;;;;5.78;2.95;;;23.30;64.60;;;;;;5074698;28;20024;-75
2022/07/20 03:45:05;;;;;;;5.68;2.65;;;23.20;64.80;;;;;;5074711;28;20046;-75
2022/07/20 03:47:31;;;;;;;5.18;2.90;;;23.20;65.00;;;;;;5056816;28;20020;-76
2022/07/20 03:49:57;;;;;;;5.40;3.30;;;23.10;65.10;;;;;;5074630;28;20095;-76
2022/07/20 03:52:22;;;;;;;8.15;3.20;;;23.10;65.40;;;;;;5074703;28;20481;-76
2022/07/20 03:54:48;;;;;;;6.63;2.80;;;23.10;65.90;;;;;;5056450;28;20106;-74
2022/07/20 03:57:14;;;;;;;5.80;3.35;;;23.00;65.40;;;;;;5074295;28;20032;-76
2022/07/20 03:59:40;;;;;;;7.55;3.35;;;23.00;64.30;;;;;;5074386;28;20031;-76
2022/07/20 04:02:06;;;;;;;9.32;2.70;;;23.00;63.60;;;;;;5074365;28;20025;-76
2022/07/20 04:04:32;;;;;;;7.50;3.40;;;23.00;63.60;;;;;;5074218;28;20028;-76
2022/07/20 04:06:58;;;;;;;8.48;3.40;;;22.90;63.30;;;;;;5056232;28;20378;-76
2022/07/20 04:12:10;;;;;;;7.55;3.40;;;22.90;62.20;;;;;;5071810;28;20415;-77
2022/07/20 04:14:36;;;;;;;12.48;4.60;;;22.90;61.90;;;;;;5074043;28;20472;-76
2022/07/20 04:17:02;;;;;;;14.07;4.72;;;22.90;61.70;;;;;;5073720;28;20043;-75
2022/07/20 04:19:28;;;;;;;12.07;4.90;;;22.90;61.70;;;;;;5056904;28;20028;-76
2022/07/20 04:22:00;;;;;;;10.38;5.93;;;22.90;61.80;;;;;;5056695;28;20047;-76
2022/07/20 04:24:26;;;;;;;11.25;5.72;;;22.90;62.20;;;;;;5074440;28;20021;-76
2022/07/20 04:26:52;;;;;;;11.13;5.93;;;22.80;62.50;;;;;;5074310;28;20050;-76
2022/07/20 04:29:18;;;;;;;14.32;5.97;;;22.80;62.80;;;;;;5074213;28;20031;-76
2022/07/20 04:31:43;;;;;;;15.23;8.07;;;22.80;63.20;;;;;;5074316;28;20388;-76
2022/07/20 04:34:09;;;;;;;13.80;8.23;;;22.70;63.60;;;;;;5074274;28;20024;-76
2022/07/20 04:36:35;;;;;;;14.68;8.70;;;22.70;64.10;;;;;;5074005;28;20434;-75
2022/07/20 04:39:00;;;;;;;15.63;9.20;;;22.70;64.50;;;;;;5073842;28;20472;-76
2022/07/20 04:41:26;;;;;;;14.68;9.07;;;22.70;64.90;;;;;;5074022;28;20029;-75
2022/07/20 04:43:52;;;;;;;18.75;10.63;;;22.70;65.50;;;;;;5073892;28;20070;-76
2022/07/20 04:46:17;;;;;;;19.50;11.38;;;22.70;66.30;;;;;;5074197;28;20029;-75
2022/07/20 04:48:43;;;;;;;21.00;11.65;;;22.70;66.80;;;;;;5073312;28;20029;-76
2022/07/20 04:51:08;;;;;;;21.67;12.52;;;22.60;67.50;;;;;;5073747;28;20036;-76
2022/07/20 04:53:34;;;;;;;21.42;13.57;;;22.60;68.30;;;;;;5073900;28;20039;-76
2022/07/20 04:56:00;;;;;;;22.98;14.90;;;22.50;68.60;;;;;;5073449;28;20556;-75
2022/07/20 04:58:25;;;;;;;22.02;14.52;;;22.60;69.50;;;;;;5074076;28;20028;-75
2022/07/20 05:00:51;;;;;;;23.88;15.15;;;22.50;69.50;;;;;;5071764;28;20025;-76
2022/07/20 05:03:17;;;;;;;21.70;15.38;;;22.50;69.90;;;;;;5055254;28;20090;-75
2022/07/20 05:05:42;;;;;;;22.75;15.40;;;22.60;70.20;;;;;;5073228;28;20071;-75
2022/07/20 05:08:08;;;;;;;21.90;14.45;;;22.60;70.70;;;;;;5072756;28;20031;-75
2022/07/20 05:10:35;;;;;;;21.35;14.77;;;22.60;70.80;;;;;;5073116;28;20040;-75
2022/07/20 05:13:01;;;;;;;20.00;15.07;;;22.60;71.10;;;;;;5073324;28;20036;-74
2022/07/20 05:15:26;;;;;;;22.05;16.13;;;22.60;71.40;;;;;;5073092;28;20085;-75
2022/07/20 05:17:53;;;;;;;23.45;17.00;;;22.60;71.50;;;;;;5084881;28;20059;-75
2022/07/20 05:20:19;;;;;;;24.45;17.60;;;22.70;71.90;;;;;;5088774;28;20031;-75
2022/07/20 05:22:45;;;;;;;25.52;18.45;;;22.70;72.10;;;;;;5072881;28;20028;-76
2022/07/20 05:25:11;;;;;;;31.80;20.23;;;22.70;72.60;;;;;;5070669;28;20041;-75
2022/07/20 05:27:37;;;;;;;30.98;19.90;;;22.60;73.30;;;;;;5073051;28;20392;-76
2022/07/20 05:30:04;;;;;;;27.08;20.65;;;22.70;73.30;;;;;;5072558;28;20112;-76
2022/07/20 05:32:30;;;;;;;30.33;20.48;;;22.70;73.70;;;;;;5072847;28;20024;-76
2022/07/20 05:34:55;;;;;;;29.40;22.38;;;22.70;73.90;;;;;;5072957;28;20366;-76
2022/07/20 05:37:21;;;;;;;28.95;21.80;;;22.70;74.30;;;;;;5072925;28;20036;-84
2022/07/20 05:39:47;;;;;;;29.90;21.85;;;22.80;74.50;;;;;;5055058;28;20052;-84
2022/07/20 05:42:13;;;;;;;31.85;22.60;;;22.80;74.50;;;;;;5054871;28;20082;-84
2022/07/20 05:44:39;;;;;;;30.95;22.90;;;22.80;74.80;;;;;;5054957;28;20407;-85
2022/07/20 05:47:06;;;;;;;34.50;25.35;;;22.80;75.00;;;;;;5073067;28;20043;-82
2022/07/20 05:49:33;;;;;;;33.90;24.92;;;22.90;75.40;;;;;;5071896;28;20370;-83
2022/07/20 05:51:58;;;;;;;38.67;27.08;;;22.90;75.80;;;;;;5072687;28;20024;-84
2022/07/20 05:54:24;;;;;;;35.60;27.15;;;23.00;75.80;;;;;;5054435;28;20075;-83
2022/07/20 05:56:50;;;;;;;36.70;26.92;;;23.00;76.20;;;;;;5064457;28;20074;-84
2022/07/20 05:59:15;;;;;;;34.88;27.88;;;23.00;76.20;;;;;;5060346;28;20033;-83
2022/07/20 06:01:43;;;;;;;33.72;26.77;;;23.10;76.80;;;;;;5067600;28;20029;-84
2022/07/20 06:04:10;;;;;;;36.50;27.88;;;23.10;77.20;;;;;;5067072;28;20031;-84
2022/07/20 06:06:36;;;;;;;39.88;27.70;;;23.10;77.10;;;;;;5071823;28;20035;-84
2022/07/20 06:09:03;;;;;;;37.08;29.83;;;23.10;77.20;;;;;;5064106;28;20485;-84
2022/07/20 06:11:28;;;;;;;32.13;27.00;;;23.20;77.60;;;;;;5055826;28;20038;-83
2022/07/20 06:13:54;;;;;;;34.95;29.55;;;23.20;77.70;;;;;;5055106;28;20040;-85
2022/07/20 06:16:19;;;;;;;41.65;32.60;;;23.30;78.40;;;;;;5056358;28;20564;-84
2022/07/20 06:18:45;;;;;;;38.50;29.63;;;23.30;78.90;;;;;;5053835;28;20043;-84
2022/07/20 06:21:13;;;;;;;40.25;30.65;;;23.30;79.00;;;;;;5058489;28;20488;-83
2022/07/20 06:23:39;;;;;;;40.25;30.88;;;23.30;79.50;;;;;;5064082;28;20090;-83
2022/07/20 06:26:05;;;;;;;40.05;30.45;;;23.40;79.70;;;;;;5075715;28;20033;-86
2022/07/20 06:28:30;;;;;;;41.25;31.13;;;23.40;79.90;;;;;;5075540;28;20052;-84
2022/07/20 06:30:56;;;;;;;38.00;29.88;;;23.40;80.00;;;;;;5074636;28;20059;-85
2022/07/20 06:33:22;;;;;;;41.97;32.15;;;23.50;79.90;;;;;;5070687;28;20039;-83
2022/07/20 06:35:47;;;;;;;34.00;28.50;;;23.60;80.10;;;;;;5058138;28;20036;-85
2022/07/20 06:38:13;;;;;;;40.20;30.20;;;23.60;79.90;;;;;;5058064;28;20060;-85
2022/07/20 06:40:39;;;;;;;36.78;30.20;;;23.60;79.90;;;;;;5076052;28;20370;-83
2022/07/20 06:43:04;;;;;;;35.45;26.42;;;23.70;79.80;;;;;;5043761;28;20063;-85
2022/07/20 06:45:30;;;;;;;39.50;28.30;;;23.70;79.50;;;;;;5076037;28;20191;-83
2022/07/20 06:47:55;;;;;;;36.95;28.55;;;23.80;80.00;;;;;;5041666;28;20043;-84
2022/07/20 06:50:21;;;;;;;34.67;26.13;;;23.90;79.00;;;;;;5076200;28;20071;-84
2022/07/20 06:52:47;;;;;;;32.70;26.17;;;23.90;79.10;;;;;;5059467;28;20085;-85
2022/07/20 06:55:12;;;;;;;35.35;25.27;;;24.00;78.00;;;;;;5075819;28;20051;-85
2022/07/20 06:57:38;;;;;;;30.88;24.20;;;24.00;77.50;;;;;;5076011;28;20395;-84
2022/07/20 07:00:06;;;;;;;30.00;22.08;;;24.10;77.30;;;;;;5075704;28;20037;-85
2022/07/20 07:02:32;;;;;;;28.70;21.63;;;24.10;77.00;;;;;;5057767;28;20037;-82
2022/07/20 07:04:57;;;;;;;26.58;21.55;;;24.10;76.60;;;;;;5058062;28;20028;-85
2022/07/20 07:07:23;;;;;;;31.50;22.98;;;24.20;76.40;;;;;;5041112;28;20086;-85
2022/07/20 07:09:48;;;;;;;27.63;20.52;;;24.20;76.00;;;;;;5074805;28;20045;-85
2022/07/20 07:12:14;;;;;;;27.67;19.92;;;24.30;75.80;;;;;;5057527;28;20021;-86
2022/07/20 07:14:40;;;;;;;26.52;19.67;;;24.40;75.60;;;;;;5075789;28;20082;-84
2022/07/20 07:17:05;;;;;;;29.67;18.52;;;24.50;75.20;;;;;;5075581;28;20037;-86
2022/07/20 07:19:31;;;;;;;22.80;18.17;;;24.60;74.80;;;;;;5057898;28;20081;-84
2022/07/20 07:21:57;;;;;;;26.83;17.75;;;24.60;74.20;;;;;;5075661;28;20111;-85
2022/07/20 07:24:22;;;;;;;24.45;16.52;;;24.70;73.70;;;;;;5058271;28;20024;-84
2022/07/20 07:26:48;;;;;;;28.08;15.57;;;24.80;73.60;;;;;;5057453;28;20039;-84
2022/07/20 07:29:19;;;;;;;26.80;16.73;;;24.90;73.40;;;;;;5075531;28;20020;-84
2022/07/20 07:31:45;;;;;;;26.90;16.35;;;24.90;73.80;;;;;;5075889;28;20492;-84
2022/07/20 07:34:11;;;;;;;20.83;16.45;;;25.00;72.90;;;;;;5074523;28;20035;-83
2022/07/20 07:36:36;;;;;;;22.58;15.75;;;25.00;72.70;;;;;;5064032;28;20028;-85
2022/07/20 07:39:02;;;;;;;24.50;16.27;;;25.00;72.40;;;;;;5075229;28;20040;-84
2022/07/20 07:41:28;;;;;;;23.08;16.38;;;25.00;72.20;;;;;;5056755;28;20484;-85
2022/07/20 07:43:53;;;;;;;24.25;15.70;;;25.00;71.70;;;;;;5072329;28;20036;-85
2022/07/20 07:46:20;;;;;;;23.88;16.08;;;25.10;71.80;;;;;;5085905;28;20469;-76
2022/07/20 07:48:45;;;;;;;22.73;14.07;;;25.10;71.60;;;;;;5074336;28;20389;-76
2022/07/20 07:51:11;;;;;;;22.58;14.02;;;25.10;71.50;;;;;;5056524;28;20040;-75
2022/07/20 07:53:37;;;;;;;24.85;13.90;;;25.10;71.30;;;;;;5071941;28;20025;-76
2022/07/20 07:56:02;;;;;;;21.02;13.25;;;25.10;71.10;;;;;;5074440;28;20060;-75
2022/07/20 07:58:28;;;;;;;20.90;13.68;;;25.20;71.10;;;;;;5074553;28;20775;-76
2022/07/20 08:00:54;;;;;;;22.95;12.57;;;25.20;70.80;;;;;;5056858;28;20043;-76
2022/07/20 08:03:19;;;;;;;20.38;12.20;;;25.30;70.50;;;;;;5056625;28;20056;-75
2022/07/20 08:05:45;;;;;;;18.92;12.63;;;25.30;70.00;;;;;;5056511;28;20111;-75
2022/07/20 08:08:14;;;;;;;24.42;13.43;;;25.40;69.70;;;;;;5074648;28;20020;-75
2022/07/20 08:10:41;;;;;;;17.83;12.07;;;25.40;69.20;;;;;;5074254;28;20021;-77
2022/07/20 08:13:07;;;;;;;17.33;11.30;;;25.40;69.30;;;;;;5074135;28;20029;-76
2022/07/20 08:15:32;;;;;;;21.55;11.77;;;25.40;69.10;;;;;;5074643;28;20032;-76
2022/07/20 08:17:59;;;;;;;19.23;11.35;;;25.50;68.80;;;;;;5072524;28;20029;-76
2022/07/20 08:20:25;;;;;;;17.50;10.68;;;25.50;68.50;;;;;;5074499;28;20013;-76
2022/07/20 08:22:52;;;;;;;16.10;9.68;;;25.50;68.40;;;;;;5074086;28;20099;-75
2022/07/20 08:25:18;;;;;;;16.38;10.05;;;25.50;68.70;;;;;;5074204;28;20048;-75
2022/07/20 08:27:44;;;;;;;16.38;9.32;;;25.50;68.20;;;;;;5072975;28;20142;-76
2022/07/20 08:30:10;;;;;;;16.30;9.55;;;25.60;68.30;;;;;;5043512;28;20059;-76
2022/07/20 08:32:36;;;;;;;19.20;10.55;;;25.60;68.20;;;;;;5052722;28;20029;-78
2022/07/20 08:35:02;;;;;;;16.20;9.93;;;25.60;68.00;;;;;;5053225;28;20115;-75
2022/07/20 08:37:29;;;;;;;17.80;9.55;;;25.70;67.70;;;;;;5053470;28;20021;-77
2022/07/20 08:39:55;;;;;;;17.20;9.88;;;25.70;67.60;;;;;;5073577;28;20098;-76
2022/07/20 08:42:21;;;;;;;16.88;9.68;;;25.80;67.50;;;;;;5074074;28;20395;-77
2022/07/20 08:44:47;;;;;;;15.13;10.25;;;25.80;67.50;;;;;;5055583;28;20028;-76
2022/07/20 08:47:14;;;;;;;18.30;10.05;;;25.80;67.20;;;;;;5089801;28;20358;-76
2022/07/20 08:49:52;;;;;;;13.27;9.35;;;25.80;66.90;;;;;;5073826;28;20028;-75
2022/07/20 08:52:18;;;;;;;16.13;10.00;;;25.90;66.80;;;;;;5055531;28;20025;-76
2022/07/20 08:54:44;;;;;;;17.58;9.82;;;25.90;66.60;;;;;;5073427;28;20047;-76
2022/07/20 08:57:11;;;;;;;13.77;8.85;;;26.00;66.60;;;;;;5056169;28;20041;-75
2022/07/20 08:59:37;;;;;;;14.50;9.30;;;26.10;66.60;;;;;;5056028;28;20036;-75
2022/07/20 09:02:08;;;;;;;13.35;8.45;;;26.10;66.20;;;;;;5073704;28;20032;-75
2022/07/20 09:04:55;;;;;;;12.27;8.57;;;26.10;66.00;;;;;;5056108;28;20100;-75
2022/07/20 09:07:43;;;;;;;13.45;8.48;;;26.20;65.90;;;;;;5073281;28;20101;-75
2022/07/20 09:10:14;;;;;;;16.70;8.35;;;26.20;65.90;;;;;;5055758;28;20178;-76
2022/07/20 09:13:01;;;;;;;12.40;7.68;;;26.30;65.80;;;;;;5052197;28;20487;-77
2022/07/20 09:15:29;;;;;;;13.02;8.55;;;26.30;65.80;;;;;;5071210;28;20024;-76
2022/07/20 09:18:03;;;;;;;14.73;7.75;;;26.40;66.40;;;;;;5055542;28;20029;-76
2022/07/20 09:20:31;;;;;;;11.38;7.72;;;26.40;65.60;;;;;;5072900;28;20025;-77
2022/07/20 09:23:15;;;;;;;14.20;7.72;;;26.50;65.40;;;;;;5072822;28;20089;-75
2022/07/20 09:26:05;;;;;;;13.70;7.72;;;26.50;65.00;;;;;;5068091;28;20024;-76
2022/07/20 09:28:51;;;;;;;12.07;7.10;;;26.60;64.40;;;;;;5073091;28;20067;-76
2022/07/20 09:31:16;;;;;;;13.25;6.72;;;26.70;64.00;;;;;;5055161;28;20048;-76
2022/07/20 09:33:51;;;;;;;12.20;7.22;;;26.70;63.70;;;;;;5073107;28;20032;-76
2022/07/20 09:36:19;;;;;;;9.90;6.57;;;26.70;62.80;;;;;;5075510;28;20477;-77
2022/07/20 09:38:44;;;;;;;10.75;6.95;;;26.80;62.50;;;;;;5077431;28;20473;-77
2022/07/20 09:41:33;;;;;;;10.63;6.88;;;26.90;62.30;;;;;;5077286;28;20040;-77
2022/07/20 09:44:00;;;;;;;10.75;6.97;;;27.00;61.70;;;;;;5077456;28;20033;-76
2022/07/20 09:46:32;;;;;;;12.98;7.45;;;27.00;61.30;;;;;;5077404;28;20078;-76
2022/07/20 09:49:00;;;;;;;12.60;7.32;;;27.10;60.80;;;;;;5077169;28;20027;-76
2022/07/20 09:51:29;;;;;;;9.95;7.03;;;27.10;60.10;;;;;;5077198;28;20028;-76
2022/07/20 09:53:57;;;;;;;12.02;6.78;;;27.20;60.20;;;;;;5077249;28;20028;-76
2022/07/20 09:56:25;;;;;;;12.18;7.18;;;27.20;60.20;;;;;;5077336;28;20089;-77
2022/07/20 09:58:53;;;;;;;13.05;7.63;;;27.20;60.00;;;;;;5075564;28;20056;-76
2022/07/20 10:01:27;;;;;;;10.05;6.18;;;27.30;59.90;;;;;;5077123;28;20021;-76
2022/07/20 10:03:57;;;;;;;9.48;6.22;;;27.30;59.90;;;;;;5077012;28;20021;-77
2022/07/20 10:06:25;;;;;;;11.63;6.50;;;27.40;60.10;;;;;;5075655;28;20031;-77
2022/07/20 10:08:51;;;;;;;11.95;6.35;;;27.50;60.30;;;;;;5076549;28;20613;-77
2022/07/20 10:11:19;;;;;;;9.27;5.90;;;27.50;60.10;;;;;;5076799;28;20088;-77
2022/07/20 10:13:46;;;;;;;10.75;5.72;;;27.60;60.00;;;;;;5076749;28;20025;-77
2022/07/20 10:16:33;;;;;;;10.05;6.13;;;27.60;60.00;;;;;;5076831;28;20104;-76
2022/07/20 10:18:59;;;;;;;10.18;6.60;;;27.70;60.00;;;;;;5076746;28;20032;-76
2022/07/20 10:21:35;;;;;;;12.60;7.40;;;27.70;60.00;;;;;;5075163;28;20028;-77
2022/07/20 10:24:16;;;;;;;12.68;6.72;;;27.80;60.00;;;;;;5076232;28;20024;-76
2022/07/20 10:26:42;;;;;;;12.88;6.65;;;27.90;60.10;;;;;;5058239;28;20025;-76
2022/07/20 10:29:09;;;;;;;12.77;6.45;;;27.90;60.10;;;;;;5076161;28;20027;-76
2022/07/20 10:31:51;;;;;;;14.35;6.85;;;28.00;60.20;;;;;;5058870;28;20032;-77
2022/07/20 10:34:42;;;;;;;13.85;6.80;;;28.10;60.20;;;;;;5076387;28;20116;-76
2022/07/20 10:37:28;;;;;;;10.98;6.78;;;28.20;60.10;;;;;;5075069;28;20457;-76
2022/07/20 10:39:57;;;;;;;10.63;6.88;;;28.30;59.80;;;;;;5076427;28;20078;-77
2022/07/20 10:42:25;;;;;;;16.25;6.80;;;28.40;59.60;;;;;;5058432;28;20020;-76
2022/07/20 10:44:52;;;;;;;11.18;6.95;;;28.50;59.50;;;;;;5076268;28;20090;-76
2022/07/20 10:47:40;;;;;;;11.73;6.93;;;28.70;59.30;;;;;;5075838;28;20364;-76
2022/07/20 10:50:06;;;;;;;12.35;7.43;;;28.80;59.00;;;;;;5076026;28;20020;-76
2022/07/20 10:52:34;;;;;;;9.20;6.05;;;29.10;58.80;;;;;;5076252;28;20043;-76
2022/07/20 10:55:00;;;;;;;12.95;6.40;;;29.20;58.30;;;;;;5075929;28;20607;-75
2022/07/20 10:57:26;;;;;;;9.18;5.75;;;29.40;58.10;;;;;;5076189;28;20054;-76
2022/07/20 11:00:08;;;;;;;11.95;6.55;;;29.50;57.80;;;;;;5075775;28;20032;-76
2022/07/20 11:02:35;;;;;;;11.77;5.95;;;29.60;57.40;;;;;;5075861;28;20039;-76
2022/07/20 11:05:01;;;;;;;9.32;5.68;;;29.70;57.30;;;;;;5075865;28;20032;-76
2022/07/20 11:07:34;;;;;;;8.48;5.40;;;29.80;57.00;;;;;;5057982;28;20024;-76
2022/07/20 11:10:23;;;;;;;10.43;5.32;;;29.90;56.70;;;;;;5076002;28;20473;-77
2022/07/20 11:12:56;;;;;;;8.10;5.07;;;30.00;55.90;;;;;;5075613;28;20201;-77
2022/07/20 11:15:22;;;;;;;8.63;4.78;;;30.00;55.70;;;;;;5075550;28;20038;-75
2022/07/20 11:17:48;;;;;;;10.38;4.60;;;30.00;55.10;;;;;;5075369;28;20107;-77
2022/07/20 11:20:17;;;;;;;9.40;4.32;;;30.00;54.60;;;;;;5075403;28;20028;-76
2022/07/20 11:22:44;;;;;;;10.02;4.43;;;30.00;54.50;;;;;;5078338;28;20021;-76
2022/07/20 11:25:10;;;;;;;7.25;3.90;;;30.00;54.20;;;;;;5078201;28;20025;-76
2022/07/20 11:27:35;;;;;;;5.90;4.15;;;30.10;54.10;;;;;;5075234;28;20074;-77
2022/07/20 11:30:01;;;;;;;6.40;3.88;;;30.30;53.90;;;;;;5057257;28;20028;-77
2022/07/20 11:32:27;;;;;;;7.57;4.13;;;30.50;53.70;;;;;;5075298;28;20044;-77
2022/07/20 11:34:53;;;;;;;6.75;4.07;;;30.70;53.30;;;;;;5075266;28;20017;-77
2022/07/20 11:37:21;;;;;;;7.55;4.45;;;30.90;52.80;;;;;;5060833;28;20025;-76
2022/07/20 11:39:47;;;;;;;7.18;4.18;;;31.10;52.60;;;;;;5072805;28;20047;-77
2022/07/20 11:42:15;;;;;;;7.25;4.13;;;31.30;52.50;;;;;;5074548;28;20112;-77
2022/07/20 11:44:57;;;;;;;5.40;3.40;;;31.40;51.90;;;;;;5074785;28;20033;-77
2022/07/20 11:47:22;;;;;;;5.78;3.50;;;31.60;51.60;;;;;;5059005;28;20046;-76
2022/07/20 11:49:48;;;;;;;7.53;4.43;;;31.80;51.30;;;;;;5057035;28;20124;-77
2022/07/20 11:52:13;;;;;;;7.20;4.13;;;32.00;50.90;;;;;;5039592;28;20025;-78
2022/07/20 11:54:39;;;;;;;5.85;3.63;;;32.10;50.50;;;;;;5058011;28;20040;-76
2022/07/20 11:57:06;;;;;;;8.65;3.80;;;32.10;50.40;;;;;;5054735;28;20481;-77
2022/07/20 11:59:33;;;;;;;5.55;3.40;;;32.20;50.20;;;;;;5076131;28;20534;-77
2022/07/20 12:02:00;;;;;;;6.97;3.95;;;32.30;50.10;;;;;;5055832;28;20029;-75
2022/07/20 12:04:27;;;;;;;5.40;3.17;;;32.50;50.00;;;;;;5073870;28;20435;-76
2022/07/20 12:06:55;;;;;;;7.35;3.78;;;32.70;49.70;;;;;;5055819;28;20116;-78
2022/07/20 12:09:23;;;;;;;5.95;3.67;;;32.80;49.30;;;;;;5071087;28;20426;-76
2022/07/20 12:11:56;;;;;;;9.50;4.25;;;33.00;49.00;;;;;;5073664;28;20027;-76
2022/07/20 12:14:42;;;;;;;6.40;3.90;;;33.10;48.60;;;;;;5068808;28;20020;-77
2022/07/20 12:17:10;;;;;;;6.13;3.95;;;33.30;48.20;;;;;;5071364;28;20036;-77
2022/07/20 12:19:37;;;;;;;5.45;3.53;;;33.50;48.20;;;;;;5073341;28;20085;-76
2022/07/20 12:22:02;;;;;;;6.00;3.70;;;33.60;47.90;;;;;;5072103;28;20483;-76
2022/07/20 12:24:28;;;;;;;6.57;3.80;;;33.80;47.60;;;;;;5073491;28;20115;-77
2022/07/20 12:27:04;;;;;;;7.15;3.45;;;33.90;46.90;;;;;;5073909;28;20427;-77
2022/07/20 12:29:30;;;;;;;5.88;3.33;;;34.00;46.40;;;;;;5073449;28;20472;-79
2022/07/20 12:32:01;;;;;;;6.38;3.60;;;34.20;46.40;;;;;;5073364;28;20044;-78
2022/07/20 12:34:27;;;;;;;6.47;3.42;;;34.40;46.10;;;;;;5073603;28;20032;-79
2022/07/20 12:36:53;;;;;;;7.63;3.88;;;34.60;45.90;;;;;;5073944;28;20024;-78
2022/07/20 12:39:39;;;;;;;5.88;3.50;;;34.80;45.80;;;;;;5073846;28;20130;-78
2022/07/20 12:42:21;;;;;;;5.80;3.40;;;35.00;45.50;;;;;;5073656;28;20032;-79
2022/07/20 12:44:47;;;;;;;9.05;3.20;;;35.20;45.30;;;;;;5055637;28;20549;-79